createdAt,value
2024-03-15T00:00:02.383Z,100.00
2024-03-15T00:03:08.592Z,100.00
2024-03-15T00:06:12.254Z,100.00
2024-03-15T00:09:14.409Z,100.00
2024-03-15T00:12:16.672Z,100.00
2024-03-15T00:15:20.151Z,100.00
2024-03-15T00:18:22.669Z,100.00
2024-03-15T00:21:25.601Z,100.00
2024-03-15T00:24:28.011Z,100.00
2024-03-15T00:27:30.303Z,100.00
2024-03-15T00:30:32.751Z,100.00
2024-03-15T00:33:35.016Z,100.00
2024-03-15T00:36:37.402Z,100.00
2024-03-15T00:39:39.563Z,100.00
2024-03-15T00:42:42.913Z,100.00
2024-03-15T00:45:45.942Z,100.00
2024-03-15T00:48:48.158Z,100.00
2024-03-15T00:51:50.760Z,100.00
2024-03-15T00:54:52.914Z,100.00
2024-03-15T00:57:55.025Z,100.00
2024-03-15T01:00:57.314Z,100.00
2024-03-15T01:03:59.468Z,100.00
2024-03-15T01:07:01.910Z,100.00
2024-03-15T01:10:04.195Z,100.00
2024-03-15T01:13:07.224Z,100.00
2024-03-15T01:16:10.613Z,100.00
2024-03-15T01:19:12.816Z,100.00
2024-03-15T01:22:14.993Z,100.00
2024-03-15T01:25:17.079Z,100.00
2024-03-15T01:28:19.429Z,100.00
2024-03-15T01:31:21.585Z,100.00
2024-03-15T01:34:23.731Z,100.00
2024-03-15T01:37:25.876Z,100.00
2024-03-15T01:40:28.677Z,100.00
2024-03-15T01:43:30.845Z,100.00
2024-03-15T01:46:33.024Z,100.00
2024-03-15T01:49:35.125Z,100.00
2024-03-15T01:52:38.002Z,100.00
2024-03-15T01:55:40.126Z,100.00
2024-03-15T01:58:42.274Z,100.00
2024-03-15T02:01:44.561Z,100.00
2024-03-15T02:04:56.137Z,100.00
2024-03-15T02:07:58.267Z,100.00
2024-03-15T02:11:01.616Z,100.00
2024-03-15T02:14:04.494Z,100.00
2024-03-15T02:17:08.302Z,100.00
2024-03-15T02:20:13.708Z,100.00
2024-03-15T02:23:16.762Z,100.00
2024-03-15T02:26:19.077Z,100.00
2024-03-15T02:29:21.193Z,100.00
2024-03-15T02:32:26.302Z,100.00
2024-03-15T02:35:32.665Z,100.00
2024-03-15T02:38:35.493Z,100.00
2024-03-15T02:41:37.658Z,100.00
2024-03-15T02:44:39.795Z,100.00
2024-03-15T02:47:42.038Z,100.00
2024-03-15T02:50:44.184Z,100.00
2024-03-15T02:53:46.347Z,100.00
2024-03-15T02:56:48.528Z,100.00
2024-03-15T02:59:50.550Z,100.00
2024-03-15T03:02:54.837Z,100.00
2024-03-15T03:05:59.134Z,100.00
2024-03-15T03:09:01.203Z,100.00
2024-03-15T03:12:03.387Z,100.00
2024-03-15T03:15:05.817Z,100.00
2024-03-15T03:18:08.115Z,100.00
2024-03-15T03:21:10.505Z,100.00
2024-03-15T03:24:13.551Z,100.00
2024-03-15T03:27:15.734Z,100.00
2024-03-15T03:30:18.986Z,100.00
2024-03-15T03:33:21.489Z,100.00
2024-03-15T03:36:23.720Z,100.00
2024-03-15T03:39:27.542Z,100.00
2024-03-15T03:42:29.807Z,100.00
2024-03-15T03:45:32.141Z,100.00
2024-03-15T03:48:34.529Z,100.00
2024-03-15T03:51:36.809Z,100.00
2024-03-15T03:54:39.025Z,100.00
2024-03-15T03:57:46.132Z,100.00
2024-03-15T04:00:49.752Z,100.00
2024-03-15T04:03:52.021Z,100.00
2024-03-15T04:06:54.205Z,100.00
2024-03-15T04:09:56.644Z,100.00
2024-03-15T04:12:58.939Z,100.00
2024-03-15T04:16:01.449Z,100.00
2024-03-15T04:19:04.444Z,100.00
2024-03-15T04:22:06.578Z,100.00
2024-03-15T04:25:08.695Z,100.00
2024-03-15T04:28:11.497Z,100.00
2024-03-15T04:31:13.698Z,100.00
2024-03-15T04:34:16.131Z,100.00
2024-03-15T04:37:20.648Z,100.00
2024-03-15T04:40:22.921Z,100.00
2024-03-15T04:43:25.057Z,100.00
2024-03-15T04:46:27.173Z,100.00
2024-03-15T04:49:30.008Z,100.00
2024-03-15T04:52:32.043Z,100.00
2024-03-15T04:55:34.890Z,100.00
2024-03-15T04:58:38.447Z,100.00
2024-03-15T05:01:40.763Z,100.00
2024-03-15T05:04:42.815Z,100.00
2024-03-15T05:07:45.227Z,100.00
2024-03-15T05:10:48.284Z,100.00
2024-03-15T05:13:50.564Z,100.00
2024-03-15T05:16:56.403Z,100.00
2024-03-15T05:19:58.613Z,100.00
2024-03-15T05:23:01.374Z,100.00
2024-03-15T05:26:06.232Z,100.00
2024-03-15T05:29:08.505Z,100.00
2024-03-15T05:32:10.677Z,100.00
2024-03-15T05:35:12.847Z,100.00
2024-03-15T05:38:15.017Z,100.00
2024-03-15T05:41:17.484Z,100.00
2024-03-15T05:44:19.601Z,100.00
2024-03-15T05:47:21.660Z,100.00
2024-03-15T05:50:23.847Z,100.00
2024-03-15T05:53:25.936Z,100.00
2024-03-15T05:56:28.110Z,100.00
2024-03-15T05:59:30.247Z,100.00
2024-03-15T06:02:32.453Z,100.00
2024-03-15T06:05:34.581Z,100.00
2024-03-15T06:08:36.735Z,100.00
2024-03-15T06:11:39.139Z,100.00
2024-03-15T06:14:41.352Z,100.00
2024-03-15T06:17:43.513Z,100.00
2024-03-15T06:20:45.993Z,100.00
2024-03-15T06:23:48.215Z,100.00
2024-03-15T06:26:53.022Z,100.00
2024-03-15T06:29:56.926Z,100.00
2024-03-15T06:33:01.004Z,100.00
2024-03-15T06:36:04.642Z,100.00
2024-03-15T06:39:24.253Z,100.00
2024-03-15T06:42:36.806Z,100.00
2024-03-15T06:45:51.220Z,100.00
2024-03-15T06:48:58.270Z,100.00
2024-03-15T06:52:19.055Z,100.00
2024-03-15T06:55:21.902Z,100.00
2024-03-15T06:58:24.779Z,100.00
2024-03-15T07:01:29.456Z,100.00
2024-03-15T07:04:31.526Z,100.00
2024-03-15T07:07:34.482Z,100.00
2024-03-15T07:10:36.609Z,100.00
2024-03-15T07:13:38.847Z,100.00
2024-03-15T07:16:41.074Z,100.00
2024-03-15T07:19:43.410Z,100.00
2024-03-15T07:22:45.662Z,100.00
2024-03-15T07:25:51.126Z,100.00
2024-03-15T07:28:53.309Z,100.00
2024-03-15T07:31:55.883Z,100.00
2024-03-15T07:34:58.018Z,100.00
2024-03-15T07:38:00.260Z,100.00
2024-03-15T07:41:02.465Z,100.00
2024-03-15T07:44:05.121Z,100.00
2024-03-15T07:47:08.547Z,100.00
2024-03-15T07:50:13.521Z,100.00
2024-03-15T07:53:16.532Z,100.00
2024-03-15T07:56:20.455Z,100.00
2024-03-15T07:59:22.573Z,100.00
2024-03-15T08:02:25.860Z,100.00
2024-03-15T08:05:28.805Z,100.00
2024-03-15T08:08:32.299Z,100.00
2024-03-15T08:11:37.509Z,100.00
2024-03-15T08:14:39.700Z,100.00
2024-03-15T08:17:42.167Z,95.32
2024-03-15T08:20:48.732Z,97.59
2024-03-15T08:23:51.001Z,95.06
2024-03-15T08:26:54.048Z,97.53
2024-03-15T08:29:58.080Z,90.21
2024-03-15T08:33:00.213Z,90.78
2024-03-15T08:36:03.913Z,92.70
2024-03-15T08:39:11.722Z,84.13
2024-03-15T08:42:13.986Z,83.44
2024-03-15T08:45:16.564Z,83.79
2024-03-15T08:48:19.720Z,84.55
2024-03-15T08:51:23.654Z,82.20
2024-03-15T08:54:26.198Z,84.25
2024-03-15T08:57:28.482Z,81.96
2024-03-15T09:00:30.710Z,81.12
2024-03-15T09:03:39.672Z,80.51
2024-03-15T09:06:43.061Z,73.83
2024-03-15T09:09:45.365Z,74.23
2024-03-15T09:12:48.243Z,76.40
2024-03-15T09:15:50.703Z,70.79
2024-03-15T09:18:54.501Z,70.31
2024-03-15T09:22:01.075Z,73.24
2024-03-15T09:25:03.758Z,70.84
2024-03-15T09:28:08.627Z,69.92
2024-03-15T09:31:24.165Z,69.49
2024-03-15T09:34:34.589Z,65.32
2024-03-15T09:37:39.799Z,72.27
2024-03-15T09:40:42.461Z,71.71
2024-03-15T09:43:47.248Z,68.28
2024-03-15T09:46:49.531Z,66.15
2024-03-15T09:49:53.203Z,66.41
2024-03-15T09:52:57.045Z,65.49
2024-03-15T09:55:59.511Z,62.96
2024-03-15T09:59:02.444Z,63.69
2024-03-15T10:02:18.197Z,65.81
2024-03-15T10:05:26.364Z,62.26
2024-03-15T10:08:29.127Z,59.73
2024-03-15T10:11:31.246Z,60.71
2024-03-15T10:14:33.764Z,60.42
2024-03-15T10:17:37.613Z,63.25
2024-03-15T10:20:41.142Z,58.13
2024-03-15T10:23:43.344Z,59.66
2024-03-15T10:26:45.482Z,61.39
2024-03-15T10:29:47.999Z,58.42
2024-03-15T10:32:51.609Z,60.37
2024-03-15T10:35:53.744Z,59.55
2024-03-15T10:38:57.206Z,59.35
2024-03-15T10:41:59.787Z,60.36
2024-03-15T10:45:02.198Z,59.30
2024-03-15T10:48:11.661Z,57.51
2024-03-15T10:51:15.512Z,56.79
2024-03-15T10:54:22.200Z,58.99
2024-03-15T10:57:24.615Z,58.48
2024-03-15T11:00:30.221Z,60.36
2024-03-15T11:03:34.796Z,58.90
2024-03-15T11:06:42.101Z,59.43
2024-03-15T11:09:46.995Z,59.45
2024-03-15T11:12:52.853Z,60.91
2024-03-15T11:15:55.497Z,57.69
2024-03-15T11:19:06.885Z,61.90
2024-03-15T11:22:21.075Z,60.41
2024-03-15T11:25:29.006Z,60.93
2024-03-15T11:28:33.789Z,61.37
2024-03-15T11:31:37.614Z,61.80
2024-03-15T11:34:42.944Z,62.31
2024-03-15T11:37:46.096Z,61.74
2024-03-15T11:40:49.228Z,61.19
2024-03-15T11:43:57.300Z,61.65
2024-03-15T11:46:59.550Z,63.00
2024-03-15T11:50:04.481Z,62.61
2024-03-15T11:53:08.436Z,60.83
2024-03-15T11:56:10.952Z,60.89
2024-03-15T11:59:13.109Z,60.47
2024-03-15T12:02:16.124Z,59.87
2024-03-15T12:05:18.295Z,63.06
2024-03-15T12:08:22.576Z,61.63
2024-03-15T12:11:24.837Z,64.51
2024-03-15T12:14:26.989Z,63.70
2024-03-15T12:17:29.193Z,60.78
2024-03-15T12:20:31.728Z,62.91
2024-03-15T12:23:36.778Z,60.72
2024-03-15T12:26:39.758Z,60.30
2024-03-15T12:29:42.064Z,60.54
2024-03-15T12:32:44.427Z,61.52
2024-03-15T12:35:50.545Z,61.50
2024-03-15T12:38:53.693Z,61.64
2024-03-15T12:43:13.740Z,62.17
2024-03-15T12:46:16.175Z,60.34
2024-03-15T12:49:18.340Z,60.74
2024-03-15T12:52:20.586Z,61.04
2024-03-15T12:55:22.810Z,59.77
2024-03-15T12:58:25.848Z,60.84
2024-03-15T13:01:28.136Z,59.86
2024-03-15T13:04:30.465Z,59.38
2024-03-15T13:07:32.539Z,62.01
2024-03-15T13:10:35.016Z,60.70
2024-03-15T13:13:37.163Z,59.86
2024-03-15T13:16:40.448Z,61.18
2024-03-15T13:19:43.233Z,60.33
2024-03-15T13:22:46.699Z,60.93
2024-03-15T13:25:48.916Z,60.80
2024-03-15T13:28:52.490Z,60.03
2024-03-15T13:31:54.832Z,59.66
2024-03-15T13:34:57.403Z,61.03
2024-03-15T13:37:59.545Z,61.64
2024-03-15T13:41:01.677Z,60.50
2024-03-15T13:44:03.789Z,59.64
2024-03-15T13:47:09.367Z,60.26
2024-03-15T13:50:20.934Z,60.89
2024-03-15T13:53:23.286Z,59.96
2024-03-15T13:56:25.499Z,59.88
2024-03-15T13:59:29.628Z,60.43
2024-03-15T14:02:31.795Z,61.63
2024-03-15T14:05:40.519Z,59.64
2024-03-15T14:08:43.503Z,59.43
2024-03-15T14:11:46.423Z,59.33
2024-03-15T14:14:48.505Z,59.40
2024-03-15T14:17:53.832Z,59.23
2024-03-15T14:20:55.909Z,59.84
2024-03-15T14:23:57.986Z,58.95
2024-03-15T14:27:04.550Z,59.66
2024-03-15T14:30:07.276Z,58.78
2024-03-15T14:33:11.272Z,59.28
2024-03-15T14:36:14.716Z,59.98
2024-03-15T14:39:16.994Z,61.01
2024-03-15T14:42:19.251Z,60.38
2024-03-15T14:45:28.095Z,60.00
2024-03-15T14:48:30.480Z,60.72
2024-03-15T14:51:32.668Z,59.28
2024-03-15T14:54:35.563Z,60.28
2024-03-15T14:57:37.830Z,60.28
2024-03-15T15:00:40.240Z,61.03
2024-03-15T15:03:42.886Z,60.71
2024-03-15T15:06:45.146Z,61.07
2024-03-15T15:09:47.684Z,60.83
2024-03-15T15:12:49.984Z,60.44
2024-03-15T15:15:52.523Z,61.66
2024-03-15T15:18:54.764Z,62.16
2024-03-15T15:21:57.034Z,62.84
2024-03-15T15:24:59.262Z,61.47
2024-03-15T15:28:01.557Z,62.80
2024-03-15T15:31:03.872Z,61.91
2024-03-15T15:34:05.992Z,63.00
2024-03-15T15:37:08.298Z,63.91
2024-03-15T15:40:16.335Z,65.60
2024-03-15T15:43:19.354Z,67.43
2024-03-15T15:46:21.712Z,67.75
2024-03-15T15:49:25.392Z,68.32
2024-03-15T15:52:27.810Z,68.66
2024-03-15T15:55:32.005Z,68.34
2024-03-15T15:58:34.480Z,68.89
2024-03-15T16:01:38.428Z,69.63
2024-03-15T16:04:40.768Z,69.64
2024-03-15T16:07:42.973Z,70.64
2024-03-15T16:10:46.841Z,71.11
2024-03-15T16:13:49.087Z,71.85
2024-03-15T16:16:54.190Z,72.61
2024-03-15T16:19:56.289Z,73.98
2024-03-15T16:22:58.813Z,74.07
2024-03-15T16:26:01.399Z,75.32
2024-03-15T16:29:07.138Z,76.57
2024-03-15T16:32:09.153Z,79.24
2024-03-15T16:35:11.420Z,78.96
2024-03-15T16:38:13.526Z,79.13
2024-03-15T16:41:16.567Z,80.40
2024-03-15T16:44:18.813Z,80.63
2024-03-15T16:47:20.999Z,81.23
2024-03-15T16:50:26.436Z,81.98
2024-03-15T16:53:29.404Z,83.86
2024-03-15T16:56:32.717Z,84.98
2024-03-15T16:59:34.794Z,85.58
2024-03-15T17:02:39.564Z,86.79
2024-03-15T17:05:41.875Z,87.21
2024-03-15T17:08:44.033Z,88.60
2024-03-15T17:11:46.132Z,89.70
2024-03-15T17:14:48.267Z,90.93
2024-03-15T17:17:50.390Z,91.67
2024-03-15T17:20:52.520Z,92.49
2024-03-15T17:23:54.766Z,92.42
2024-03-15T17:26:56.947Z,91.90
2024-03-15T17:30:01.314Z,92.32
2024-03-15T17:33:06.204Z,94.56
2024-03-15T17:36:08.575Z,94.13
2024-03-15T17:39:12.888Z,93.03
2024-03-15T17:42:15.159Z,94.47
2024-03-15T17:45:17.352Z,96.43
2024-03-15T17:48:19.678Z,97.79
2024-03-15T17:51:24.156Z,98.71
2024-03-15T17:54:27.760Z,97.28
2024-03-15T17:57:31.268Z,98.56
2024-03-15T18:00:33.479Z,100.00
2024-03-15T18:03:35.684Z,100.00
2024-03-15T18:06:37.848Z,100.00
2024-03-15T18:09:41.116Z,100.00
2024-03-15T18:12:43.391Z,100.00
2024-03-15T18:15:49.520Z,100.00
2024-03-15T18:18:52.123Z,100.00
2024-03-15T18:21:54.492Z,100.00
2024-03-15T18:24:56.775Z,100.00
2024-03-15T18:28:01.018Z,100.00
2024-03-15T18:31:06.984Z,100.00
2024-03-15T18:34:09.742Z,100.00
2024-03-15T18:37:12.313Z,100.00
2024-03-15T18:40:14.841Z,100.00
2024-03-15T18:43:17.281Z,100.00
2024-03-15T18:46:19.801Z,100.00
2024-03-15T18:49:22.231Z,100.00
2024-03-15T18:52:25.235Z,100.00
2024-03-15T18:55:27.409Z,100.00
2024-03-15T18:58:30.193Z,100.00
2024-03-15T19:01:36.007Z,100.00
2024-03-15T19:04:41.339Z,100.00
2024-03-15T19:07:44.402Z,100.00
2024-03-15T19:10:47.724Z,100.00
2024-03-15T19:13:50.244Z,100.00
2024-03-15T19:16:54.490Z,100.00
2024-03-15T19:20:16.677Z,100.00
2024-03-15T19:23:19.135Z,100.00
2024-03-15T19:26:22.081Z,100.00
2024-03-15T19:29:25.037Z,100.00
2024-03-15T19:32:32.558Z,100.00
2024-03-15T19:35:35.486Z,100.00
2024-03-15T19:38:37.903Z,100.00
2024-03-15T19:41:40.246Z,100.00
2024-03-15T19:44:43.244Z,100.00
2024-03-15T19:47:46.629Z,100.00
2024-03-15T19:50:49.625Z,100.00
2024-03-15T19:53:52.934Z,100.00
2024-03-15T19:56:55.757Z,100.00
2024-03-15T19:59:58.623Z,100.00
2024-03-15T20:03:01.573Z,100.00
2024-03-15T20:06:05.502Z,100.00
2024-03-15T20:09:07.785Z,100.00
2024-03-15T20:12:10.314Z,100.00
2024-03-15T20:15:13.417Z,100.00
2024-03-15T20:18:15.871Z,100.00
2024-03-15T20:21:18.966Z,100.00
2024-03-15T20:24:22.334Z,100.00
2024-03-15T20:27:25.272Z,100.00
2024-03-15T20:30:27.730Z,100.00
2024-03-15T20:33:30.023Z,100.00
2024-03-15T20:36:32.658Z,100.00
2024-03-15T20:39:37.253Z,100.00
2024-03-15T20:42:41.697Z,100.00
2024-03-15T20:45:49.833Z,100.00
2024-03-15T20:48:53.733Z,100.00
2024-03-15T20:51:57.192Z,100.00
2024-03-15T20:55:00.032Z,100.00
2024-03-15T20:58:02.647Z,100.00
2024-03-15T21:01:08.191Z,100.00
2024-03-15T21:04:13.710Z,100.00
2024-03-15T21:07:16.874Z,100.00
2024-03-15T21:10:19.913Z,100.00
2024-03-15T21:13:22.238Z,100.00
2024-03-15T21:16:24.478Z,100.00
2024-03-15T21:19:26.965Z,100.00
2024-03-15T21:22:29.206Z,100.00
2024-03-15T21:25:32.922Z,100.00
2024-03-15T21:28:35.336Z,100.00
2024-03-15T21:31:40.570Z,100.00
2024-03-15T21:34:42.934Z,100.00
2024-03-15T21:37:45.177Z,100.00
2024-03-15T21:40:53.804Z,100.00
2024-03-15T21:43:56.251Z,100.00
2024-03-15T21:46:58.459Z,100.00
2024-03-15T21:50:01.466Z,100.00
2024-03-15T21:53:04.448Z,100.00
2024-03-15T21:56:08.538Z,100.00
2024-03-15T21:59:10.701Z,100.00
2024-03-15T22:02:14.709Z,100.00
2024-03-15T22:05:17.065Z,100.00
2024-03-15T22:08:21.363Z,100.00
2024-03-15T22:11:24.465Z,100.00
2024-03-15T22:14:26.792Z,100.00
2024-03-15T22:17:29.091Z,100.00
2024-03-15T22:20:31.294Z,100.00
2024-03-15T22:23:33.952Z,100.00
2024-03-15T22:26:36.108Z,100.00
2024-03-15T22:29:38.366Z,100.00
2024-03-15T22:32:42.089Z,100.00
2024-03-15T22:35:44.804Z,100.00
2024-03-15T22:38:52.852Z,100.00
2024-03-15T22:41:55.138Z,100.00
2024-03-15T22:44:58.278Z,100.00
2024-03-15T22:48:01.944Z,100.00
2024-03-15T22:51:05.803Z,100.00
2024-03-15T22:54:08.777Z,100.00
2024-03-15T22:57:12.678Z,100.00
2024-03-15T23:00:18.155Z,100.00
2024-03-15T23:03:20.745Z,100.00
2024-03-15T23:06:42.854Z,100.00
2024-03-15T23:09:45.156Z,100.00
2024-03-15T23:12:48.782Z,100.00
2024-03-15T23:15:52.760Z,100.00
2024-03-15T23:18:55.123Z,100.00
2024-03-15T23:21:57.459Z,100.00
2024-03-15T23:24:59.838Z,92.62
2024-03-15T23:28:02.162Z,84.94
2024-03-15T23:31:05.154Z,86.17
2024-03-15T23:34:08.179Z,84.07
2024-03-15T23:37:11.039Z,82.18
2024-03-15T23:40:14.124Z,85.17
2024-03-15T23:43:22.637Z,90.49
2024-03-15T23:46:25.087Z,90.18
2024-03-15T23:49:27.428Z,88.96
2024-03-15T23:52:30.223Z,83.90
2024-03-15T23:55:32.464Z,85.00
2024-03-15T23:58:34.788Z,90.20
